Aérodrome :
LOGIN :

S'inscrire | Disclaimer

   EN    FR    IT 

 










Légende :    VFR   VFR Marginal   IFR   IFR Intensif   IFR Très Intensif
Visi : 
Plafond : 
>= 8 km
>= 3000ft
5 à 8 km
1000 à 3000 ft
1500m à 5 km
500 à 1000 ft
800 à 1500m
200 à 500 ft
< 800m
< 200 ft
Symboles :   Orages  Brouillard  Fortes neiges  Fortes précipitations  Vent > 20 kt
SIGMETs :   Divers  Orages  Givrage  Turbulence  Onde Orograph.  Cendres Volcan.






- Altitude de l'aérodrome : 86 ft


LERT - Rota Navy

DERNIER METAR :
  • 201200Z 17012KT 140V220 9000 BKN012 15/14 Q1010 TEMPO 4000 RA

METARs EXPIRÉS :
  • 201133Z 17014KT 140V200 9999 -RA BKN012 15/13 Q1011 TEMPO 4000 RA
  • 201103Z 16013KT 120V200 9999 SCT014 16/14 Q1011 TEMPO 4000 RA BKN014
  • 201000Z 16007KT 9999 FEW020 BKN042 14/12 Q1012 TEMPO 4000 RA BKN014
  • 200900Z 13010KT 9000 -RA FEW015 SCT059 12/11 Q1012 TEMPO 4000 RA BKN014

TAF TAF LERT
Valide du 20 à 12h jusqu'au 20 à 21h UTC


201100Z 2012/2021 18011KT 9999 FEW020 SCT035
TEMPO 2012/2014 4000 RA BKN014
PROB40
TEMPO 2012/2013 21015G25KT 3000 TSRA SCT020CB BKN030
BECMG 2012/2015 29009KT



MET'MAP, la Météo Aéronautique d'un coup d'oeil ! - Copyright ORBIFLY Décembre 2007 - Disclaimer

ORBIFLY MET'MAP TEAM :

Programmation & Développement : Alexandra Zaïnal
Conception & Développement : Baudouin d'Aumeries
Co-Programmation & Développement : Marc-Olivier Méhu
Soutien technique & logistique : Manuel Goepfert

Contact : metmap@orbifly.com




SOURCES & CREDITS :

   NOAA